KLWM Airport (Lawrence Muni) Information

FAA: LWM - ICAO: KLWM

KLWM Airport Location

State Massachusetts
County Essex
City Lawrence
KLWM Airport is 2 miles east of Lawrence, MA.
Latitude 42-43-01.3520N
Longitude 071-07-24.7200W
Elevation 147ft

KLWM Airport METARs

METAR KLWM 072054Z 17005KT 4SM -RA BR OVC008 14/13 A3009 RMK AO2 SLP189 P0003 60003 T01440133 58023
Altimeter 30.09"
Temperature 14.4°C (57.9°F)
Wind 170° at 5KT
Clouds overcast at 800ft
Visibility 4.0mi
Time observed: 2022-12-07T20:54:00Z

KLWM Airport Details

Status Operational
Activation April 1940
Ownership Public
Usage Public
Chart NEW YORK
ATC on-site Yes
Beacon schedule sunset-sunrise
Beacon color clear green

KLWM Airport Contacts

Owner CITY OF LAWRENCE
Owner address CITY HALL, 200 COMMON ST, LAWRENCE, MA 08140
Owner phone 978-620-3014
Manager PETER OAKLEY
Manager address 1044 PLYMOUTH STREET, EAST BRIDGEWATER, MA 02333
Manager phone 508-378-7134

KLWM Airport (Lawrence Muni) Radio Frequencies

KLWM (Airport) Radio Frequencies

UNICOM 122.8
Common traffic advisory frequency (CTAF) 119.25